Time;durP1;ratioP1;P1;durP2;ratioP2;P2;SDS_P1;SDS_P2;PMS_P1;PMS_P2;Temp;Humidity;BMP_temperature;BMP_pressure;BME280_temperature;BME280_humidity;BME280_pressure;Samples;Min_cycle;Max_cycle;Signal;HPM_P1;HPM_P2
2022/09/08 00:02:38;;;;;;;3.10;1.80;;;16.60;99.90;;;;;;20837608;28;20404;-75
2022/09/08 00:12:42;;;;;;;5.57;1.93;;;16.60;99.90;;;;;;20819971;28;20042;-75
2022/09/08 00:22:43;;;;;;;3.28;1.73;;;16.60;99.90;;;;;;20835988;28;20049;-75
2022/09/08 00:32:44;;;;;;;3.43;1.80;;;16.50;99.90;;;;;;20817913;28;20171;-75
2022/09/08 00:42:44;;;;;;;3.27;1.60;;;16.60;99.90;;;;;;20834780;28;20041;-75
2022/09/08 00:52:47;;;;;;;3.00;1.60;;;16.60;99.90;;;;;;20833930;28;20038;-75
2022/09/08 01:02:48;;;;;;;2.92;1.75;;;16.70;99.90;;;;;;20982382;23;20040;-75
2022/09/08 01:12:52;;;;;;;6.90;2.27;;;16.60;99.90;;;;;;20998024;28;20078;-75
2022/09/08 01:23:17;;;;;;;7.00;2.03;;;16.50;99.90;;;;;;20996954;28;20047;-75
2022/09/08 01:33:19;;;;;;;2.90;1.48;;;16.30;99.90;;;;;;20978299;28;20063;-75
2022/09/08 01:43:20;;;;;;;2.47;1.67;;;16.20;99.90;;;;;;20977801;28;20423;-76
2022/09/08 01:53:20;;;;;;;4.07;1.50;;;16.20;99.90;;;;;;20994518;28;20124;-76
2022/09/08 02:03:21;;;;;;;4.43;1.93;;;16.40;99.90;;;;;;20994126;28;20040;-76
2022/09/08 02:13:23;;;;;;;3.20;1.70;;;16.30;99.90;;;;;;20992904;28;20036;-76
2022/09/08 02:23:23;;;;;;;;;;;16.20;99.90;;;;;;20996260;28;20194;-76
2022/09/08 02:33:25;;;;;;;3.23;1.90;;;16.10;99.90;;;;;;20991827;28;19962;-76
2022/09/08 02:43:27;;;;;;;3.60;1.40;;;16.10;99.90;;;;;;20973335;28;20310;-76
2022/09/08 02:53:29;;;;;;;2.92;1.77;;;16.10;99.90;;;;;;20990969;28;20039;-76
2022/09/08 03:03:30;;;;;;;4.45;1.63;;;16.20;99.90;;;;;;20990296;28;20033;-76
2022/09/08 03:13:31;;;;;;;2.70;1.50;;;16.10;99.90;;;;;;20989882;28;20486;-76
2022/09/08 03:23:33;;;;;;;2.60;1.60;;;16.20;99.90;;;;;;20996526;28;20078;-76
2022/09/08 03:33:34;;;;;;;3.35;1.40;;;16.30;99.90;;;;;;21005699;28;20037;-76
2022/09/08 03:43:35;;;;;;;2.13;1.58;;;16.30;99.90;;;;;;21005086;28;20515;-76
2022/09/08 03:53:36;;;;;;;2.42;1.45;;;16.30;99.90;;;;;;21004933;28;20577;-75
2022/09/08 04:03:37;;;;;;;5.00;1.63;;;16.30;99.90;;;;;;21005576;28;20056;-75
2022/09/08 04:13:39;;;;;;;7.33;1.80;;;16.60;99.90;;;;;;21010984;28;20024;-75
2022/09/08 04:23:40;;;;;;;2.13;1.27;;;16.50;99.90;;;;;;21059155;28;20772;-75
2022/09/08 04:33:40;;;;;;;4.57;1.23;;;16.50;99.90;;;;;;21083650;28;20139;-75
2022/09/08 04:43:42;;;;;;;7.23;1.47;;;16.60;99.90;;;;;;21065868;28;20043;-75
2022/09/08 04:53:43;;;;;;;7.45;1.88;;;16.60;99.90;;;;;;21083061;28;20044;-75
2022/09/08 05:03:45;;;;;;;4.10;1.52;;;16.40;99.90;;;;;;21082306;28;20506;-74
2022/09/08 05:13:49;;;;;;;1.85;1.02;;;16.40;99.90;;;;;;21081487;28;20106;-74
2022/09/08 05:23:51;;;;;;;3.30;0.90;;;16.40;99.90;;;;;;21080594;28;20046;-75
2022/09/08 05:33:54;;;;;;;1.45;1.05;;;16.40;99.90;;;;;;21014220;28;20043;-75
2022/09/08 05:43:56;;;;;;;3.67;1.40;;;16.40;99.90;;;;;;20999160;28;20068;-74
2022/09/08 05:54:01;;;;;;;4.03;1.50;;;16.40;99.90;;;;;;21027096;28;20089;-75
2022/09/08 06:04:02;;;;;;;3.10;1.45;;;16.40;99.90;;;;;;20998342;28;20044;-75
2022/09/08 06:14:03;;;;;;;3.58;1.75;;;16.50;99.90;;;;;;20992935;28;20487;-75
2022/09/08 06:24:05;;;;;;;3.03;1.57;;;16.40;99.90;;;;;;20992255;28;20095;-76
2022/09/08 06:34:17;;;;;;;4.13;2.05;;;16.60;99.90;;;;;;20991733;28;20097;-75
2022/09/08 06:44:26;;;;;;;4.55;2.17;;;16.60;99.90;;;;;;20991261;28;20045;-75
2022/09/08 06:54:48;;;;;;;7.22;2.75;;;16.70;99.90;;;;;;20996075;28;20025;-78
2022/09/08 07:05:06;;;;;;;5.70;1.90;;;16.70;99.90;;;;;;21001565;28;20067;-77
2022/09/08 07:15:19;;;;;;;2.47;1.50;;;16.70;99.90;;;;;;21001347;28;20033;-77
2022/09/08 07:25:35;;;;;;;2.08;0.75;;;16.80;99.90;;;;;;20994089;28;20119;-77
2022/09/08 07:36:12;;;;;;;1.20;0.80;;;17.00;99.90;;;;;;20989034;28;20056;-77
2022/09/08 07:46:16;;;;;;;2.78;0.80;;;18.10;99.90;;;;;;20971633;28;20411;-76
2022/09/08 07:56:42;;;;;;;3.25;1.15;;;19.10;99.90;;;;;;20970009;28;20048;-77
2022/09/08 08:06:42;;;;;;;2.05;0.60;;;18.90;99.90;;;;;;20988249;28;20040;-76
2022/09/08 08:16:46;;;;;;;3.17;0.50;;;19.40;99.90;;;;;;20986240;28;20047;-77
2022/09/08 08:27:16;;;;;;;2.78;1.10;;;19.60;99.90;;;;;;21005884;28;20083;-77
2022/09/08 08:37:24;;;;;;;3.15;0.57;;;20.10;99.90;;;;;;21012149;28;20040;-77
2022/09/08 08:47:42;;;;;;;2.83;0.50;;;20.10;99.90;;;;;;21015384;28;20048;-77
2022/09/08 08:58:21;;;;;;;0.90;0.30;;;20.20;99.90;;;;;;21009847;28;20115;-78
2022/09/08 09:08:28;;;;;;;2.47;0.60;;;21.20;99.90;;;;;;21030603;28;20127;-78
2022/09/08 09:19:01;;;;;;;1.60;0.47;;;21.60;99.90;;;;;;21019640;28;20044;-78
2022/09/08 09:29:21;;;;;;;4.63;0.50;;;21.70;99.90;;;;;;21010752;28;20053;-78
2022/09/08 09:39:44;;;;;;;4.15;0.73;;;22.20;99.90;;;;;;21034299;28;20071;-78
2022/09/08 09:50:35;;;;;;;3.00;0.55;;;22.80;99.90;;;;;;21035659;28;20040;-77
2022/09/08 10:01:21;;;;;;;1.75;0.50;;;23.60;99.90;;;;;;21035397;28;20072;-78
2022/09/08 10:11:28;;;;;;;5.63;0.50;;;22.80;99.90;;;;;;21029647;28;20036;-78
2022/09/08 10:21:49;;;;;;;2.45;0.50;;;22.70;99.90;;;;;;21032510;28;20422;-77
2022/09/08 10:31:52;;;;;;;4.60;0.40;;;24.00;99.90;;;;;;21026812;28;20046;-78
2022/09/08 10:42:04;;;;;;;2.95;0.43;;;23.40;99.90;;;;;;21029037;28;20032;-78
2022/09/08 10:52:20;;;;;;;;;;;22.40;99.90;;;;;;21013715;28;20051;-78
2022/09/08 11:02:35;;;;;;;2.05;0.55;;;22.20;99.90;;;;;;21021810;28;19990;-78
2022/09/08 11:13:03;;;;;;;4.40;0.63;;;20.90;99.90;;;;;;21019515;28;20488;-78
2022/09/08 11:23:42;;;;;;;0.95;0.60;;;21.70;99.90;;;;;;21020039;28;20113;-78
2022/09/08 11:34:04;;;;;;;5.30;0.60;;;21.00;99.90;;;;;;21020594;28;20045;-79
2022/09/08 11:44:20;;;;;;;0.83;0.37;;;21.00;99.90;;;;;;21030024;28;20090;-78
2022/09/08 11:54:33;;;;;;;4.20;0.50;;;23.00;99.90;;;;;;21042961;28;20040;-78
2022/09/08 12:04:40;;;;;;;3.83;0.55;;;22.60;99.90;;;;;;21041203;28;20040;-78
2022/09/08 12:14:59;;;;;;;5.60;0.70;;;23.20;99.90;;;;;;21041608;28;20045;-78
2022/09/08 12:25:34;;;;;;;2.42;0.60;;;23.70;99.90;;;;;;21035880;28;20044;-78
2022/09/08 12:35:58;;;;;;;2.95;0.60;;;22.30;99.90;;;;;;21017986;28;20080;-78
2022/09/08 12:46:20;;;;;;;3.72;0.70;;;22.00;99.90;;;;;;21031470;28;20131;-78
2022/09/08 12:56:32;;;;;;;5.53;0.60;;;21.80;99.90;;;;;;21006880;28;20040;-78
2022/09/08 13:06:41;;;;;;;2.53;0.98;;;21.60;99.90;;;;;;20992719;28;20087;-78
2022/09/08 13:16:55;;;;;;;3.22;0.75;;;21.50;99.90;;;;;;20992372;28;20064;-79
2022/09/08 13:27:21;;;;;;;2.65;0.60;;;23.20;99.90;;;;;;21010575;28;20114;-78
2022/09/08 13:37:43;;;;;;;2.53;0.35;;;23.70;99.90;;;;;;21002341;28;20044;-78
2022/09/08 13:48:25;;;;;;;3.75;0.60;;;24.00;99.90;;;;;;20991400;28;20406;-77
2022/09/08 13:58:47;;;;;;;2.45;0.60;;;24.10;99.90;;;;;;20981996;28;20127;-77
2022/09/08 14:08:55;;;;;;;2.42;0.40;;;23.90;99.90;;;;;;21011880;28;20131;-78
2022/09/08 14:19:33;;;;;;;2.85;0.50;;;23.00;99.90;;;;;;20990346;28;20380;-78
2022/09/08 14:29:34;;;;;;;2.38;0.38;;;23.40;99.90;;;;;;21002965;28;20032;-78
2022/09/08 14:39:51;;;;;;;;;;;23.90;99.90;;;;;;21002177;28;20046;-78
2022/09/08 14:50:19;;;;;;;3.50;0.40;;;24.50;99.90;;;;;;21027122;28;19908;-77
2022/09/08 15:00:22;;;;;;;1.30;0.30;;;23.70;99.90;;;;;;21021103;28;20051;-79
2022/09/08 15:11:00;;;;;;;2.67;0.57;;;23.40;99.90;;;;;;21001529;28;20032;-76
2022/09/08 15:21:15;;;;;;;1.48;0.40;;;24.00;99.90;;;;;;20998734;28;20032;-78
2022/09/08 15:31:48;;;;;;;3.40;0.40;;;24.20;99.90;;;;;;21014115;28;20072;-78
2022/09/08 15:42:04;;;;;;;5.20;1.23;;;23.90;99.90;;;;;;20985029;28;20052;-77
2022/09/08 15:52:26;;;;;;;4.88;0.45;;;23.70;99.90;;;;;;20955072;28;20124;-78
2022/09/08 16:02:35;;;;;;;;;;;23.10;99.90;;;;;;20989358;28;20481;-78
2022/09/08 16:12:54;;;;;;;3.45;0.40;;;22.70;99.90;;;;;;20968519;28;20309;-77
2022/09/08 16:22:58;;;;;;;1.55;0.47;;;22.60;99.90;;;;;;20967678;28;20115;-77
2022/09/08 16:33:16;;;;;;;4.90;0.50;;;22.30;99.90;;;;;;20962995;28;20076;-77
2022/09/08 16:43:21;;;;;;;4.07;0.50;;;21.90;99.90;;;;;;20983660;28;20036;-77
2022/09/08 16:53:32;;;;;;;1.73;0.60;;;21.70;99.90;;;;;;21075559;28;20036;-77
2022/09/08 17:03:51;;;;;;;3.00;0.30;;;21.60;99.90;;;;;;21004045;28;20068;-78
2022/09/08 17:13:54;;;;;;;2.15;0.57;;;21.50;99.90;;;;;;20985129;28;20406;-78
2022/09/08 17:24:16;;;;;;;3.83;0.65;;;21.10;99.90;;;;;;21002152;28;20033;-78
2022/09/08 17:34:21;;;;;;;1.30;0.38;;;20.90;99.90;;;;;;21000061;28;20531;-76
2022/09/08 17:44:32;;;;;;;1.77;0.47;;;19.90;99.90;;;;;;20998883;28;20075;-77
2022/09/08 17:54:36;;;;;;;2.13;0.40;;;19.60;99.90;;;;;;20997799;28;20036;-78
2022/09/08 18:04:37;;;;;;;2.60;0.50;;;18.80;99.90;;;;;;21001305;28;20032;-77
2022/09/08 18:14:58;;;;;;;4.00;1.20;;;18.20;99.90;;;;;;20995759;28;20059;-77
2022/09/08 18:25:50;;;;;;;4.18;1.50;;;17.90;99.90;;;;;;20977790;28;20037;-78
2022/09/08 18:36:03;;;;;;;2.80;0.90;;;17.30;99.90;;;;;;20986652;28;20097;-78
2022/09/08 18:46:08;;;;;;;4.57;0.90;;;16.70;99.90;;;;;;21077280;28;20079;-78
2022/09/08 18:56:34;;;;;;;2.30;0.75;;;16.00;99.90;;;;;;21081051;28;20042;-78
2022/09/08 19:06:41;;;;;;;4.70;1.10;;;15.90;99.90;;;;;;21025489;28;20388;-77
2022/09/08 19:17:02;;;;;;;7.00;1.13;;;15.80;99.90;;;;;;21068657;28;20025;-78
2022/09/08 19:27:18;;;;;;;1.10;0.70;;;15.90;99.90;;;;;;21040044;28;20082;-79
2022/09/08 19:37:32;;;;;;;5.68;1.08;;;15.30;99.90;;;;;;20984917;28;20068;-78
2022/09/08 19:47:51;;;;;;;5.47;1.20;;;15.10;99.90;;;;;;20968583;28;20608;-79
2022/09/08 19:58:17;;;;;;;8.43;1.67;;;14.80;99.90;;;;;;21003570;28;20171;-78
2022/09/08 20:08:35;;;;;;;2.42;0.90;;;14.80;99.90;;;;;;21013332;28;20193;-79
2022/09/08 20:18:42;;;;;;;7.05;1.10;;;14.40;99.90;;;;;;21036426;28;20043;-77
2022/09/08 20:29:11;;;;;;;5.28;1.10;;;14.20;99.90;;;;;;21013313;28;20037;-78
2022/09/08 20:39:21;;;;;;;6.85;1.08;;;14.00;99.90;;;;;;20991931;28;20044;-80
2022/09/08 20:49:36;;;;;;;3.00;1.00;;;14.10;99.90;;;;;;21006947;28;20051;-80
2022/09/08 20:59:45;;;;;;;6.03;1.00;;;14.10;99.90;;;;;;21002027;28;20510;-78
2022/09/08 21:10:15;;;;;;;5.00;1.23;;;13.80;99.90;;;;;;20995842;28;20165;-78
2022/09/08 21:20:36;;;;;;;4.45;1.10;;;13.40;99.90;;;;;;20993051;28;20047;-77
2022/09/08 21:30:48;;;;;;;5.43;1.00;;;13.50;99.90;;;;;;21010902;28;20052;-77
2022/09/08 21:41:28;;;;;;;2.42;0.98;;;13.60;99.90;;;;;;21008861;28;20064;-77
2022/09/08 21:51:29;;;;;;;7.65;1.20;;;13.40;99.90;;;;;;20990705;28;20047;-78
2022/09/08 22:01:38;;;;;;;5.60;1.30;;;13.10;99.90;;;;;;21007598;28;20029;-78
2022/09/08 22:11:49;;;;;;;4.45;1.10;;;13.20;99.90;;;;;;21008374;28;20037;-78
2022/09/08 22:22:11;;;;;;;1.48;0.70;;;13.50;99.90;;;;;;21011095;28;20048;-77
2022/09/08 22:32:22;;;;;;;4.80;1.70;;;13.60;99.90;;;;;;20992096;28;20452;-79
2022/09/08 22:42:51;;;;;;;6.23;1.07;;;13.40;99.90;;;;;;21009960;28;20044;-79
2022/09/08 22:53:02;;;;;;;3.00;0.93;;;13.40;99.90;;;;;;21010086;28;20056;-79
2022/09/08 23:03:32;;;;;;;4.03;0.75;;;13.50;99.90;;;;;;21009766;28;20128;-79
2022/09/08 23:13:43;;;;;;;3.85;0.80;;;13.30;99.90;;;;;;20990621;28;20159;-79
2022/09/08 23:23:52;;;;;;;3.63;1.13;;;13.30;99.90;;;;;;20989564;28;20037;-79
2022/09/08 23:34:16;;;;;;;5.60;1.00;;;12.90;99.90;;;;;;21005918;28;20438;-78
2022/09/08 23:44:20;;;;;;;6.60;1.23;;;12.90;99.90;;;;;;21018531;28;20055;-78
2022/09/08 23:54:24;;;;;;;8.73;1.50;;;13.00;99.90;;;;;;21021549;28;20056;-78
